sensor_id;sensor_type;location;lat;lon;timestamp;pressure;altitude;pressure_sealevel;temperature;humidity
5651;BME280;40241;52.684;9.758;2024-01-30T00:00:36;102575.50;;;2.65;58.86
5651;BME280;40241;52.684;9.758;2024-01-30T00:03:01;102578.66;;;2.64;58.89
5651;BME280;40241;52.684;9.758;2024-01-30T00:05:27;102571.63;;;2.63;58.77
5651;BME280;40241;52.684;9.758;2024-01-30T00:07:52;102573.19;;;2.64;58.85
5651;BME280;40241;52.684;9.758;2024-01-30T00:10:17;102574.72;;;2.65;58.75
5651;BME280;40241;52.684;9.758;2024-01-30T00:12:43;102569.66;;;2.63;58.91
5651;BME280;40241;52.684;9.758;2024-01-30T00:15:08;102570.84;;;2.62;59.17
5651;BME280;40241;52.684;9.758;2024-01-30T00:17:36;102570.06;;;2.62;59.06
5651;BME280;40241;52.684;9.758;2024-01-30T00:20:02;102575.53;;;2.62;58.92
5651;BME280;40241;52.684;9.758;2024-01-30T00:22:30;102576.31;;;2.62;58.92
5651;BME280;40241;52.684;9.758;2024-01-30T00:24:56;102570.50;;;2.60;59.05
5651;BME280;40241;52.684;9.758;2024-01-30T00:27:21;102568.19;;;2.59;58.65
5651;BME280;40241;52.684;9.758;2024-01-30T00:29:46;102560.75;;;2.59;58.81
5651;BME280;40241;52.684;9.758;2024-01-30T00:32:12;102562.34;;;2.57;59.16
5651;BME280;40241;52.684;9.758;2024-01-30T00:34:37;102566.25;;;2.55;58.70
5651;BME280;40241;52.684;9.758;2024-01-30T00:37:02;102556.53;;;2.54;59.15
5651;BME280;40241;52.684;9.758;2024-01-30T00:39:27;102556.94;;;2.53;58.89
5651;BME280;40241;52.684;9.758;2024-01-30T00:41:53;102549.97;;;2.48;59.07
5651;BME280;40241;52.684;9.758;2024-01-30T00:44:18;102553.56;;;2.45;59.05
5651;BME280;40241;52.684;9.758;2024-01-30T00:46:44;102552.84;;;2.41;58.81
5651;BME280;40241;52.684;9.758;2024-01-30T00:49:10;102563.75;;;2.41;59.11
5651;BME280;40241;52.684;9.758;2024-01-30T00:51:35;102560.25;;;2.41;59.16
5651;BME280;40241;52.684;9.758;2024-01-30T00:54:01;102558.69;;;2.40;59.25
5651;BME280;40241;52.684;9.758;2024-01-30T00:56:28;102559.91;;;2.39;59.06
5651;BME280;40241;52.684;9.758;2024-01-30T00:58:53;102565.78;;;2.37;59.19
5651;BME280;40241;52.684;9.758;2024-01-30T01:01:18;102567.66;;;2.40;59.27
5651;BME280;40241;52.684;9.758;2024-01-30T01:03:44;102559.91;;;2.39;59.33
5651;BME280;40241;52.684;9.758;2024-01-30T01:06:09;102562.97;;;2.41;59.21
5651;BME280;40241;52.684;9.758;2024-01-30T01:08:35;102563.75;;;2.41;59.34
5651;BME280;40241;52.684;9.758;2024-01-30T01:11:01;102567.66;;;2.40;59.46
5651;BME280;40241;52.684;9.758;2024-01-30T01:13:26;102564.16;;;2.40;59.30
5651;BME280;40241;52.684;9.758;2024-01-30T01:15:51;102558.69;;;2.40;59.26
5651;BME280;40241;52.684;9.758;2024-01-30T01:18:17;102572.72;;;2.42;59.25
5651;BME280;40241;52.684;9.758;2024-01-30T01:20:42;102565.72;;;2.41;59.57
5651;BME280;40241;52.684;9.758;2024-01-30T01:23:07;102563.34;;;2.43;59.16
5651;BME280;40241;52.684;9.758;2024-01-30T01:25:32;102562.22;;;2.40;59.44
5651;BME280;40241;52.684;9.758;2024-01-30T01:27:58;102564.91;;;2.44;59.65
5651;BME280;40241;52.684;9.758;2024-01-30T01:30:23;102552.00;;;2.44;59.60
5651;BME280;40241;52.684;9.758;2024-01-30T01:32:50;102555.09;;;2.46;59.62
5651;BME280;40241;52.684;9.758;2024-01-30T01:35:22;102552.72;;;2.48;59.52
5651;BME280;40241;52.684;9.758;2024-01-30T01:37:49;102553.47;;;2.49;59.54
5651;BME280;40241;52.684;9.758;2024-01-30T01:40:22;102557.34;;;2.51;59.48
5651;BME280;40241;52.684;9.758;2024-01-30T01:42:49;102554.97;;;2.53;59.44
5651;BME280;40241;52.684;9.758;2024-01-30T01:45:15;102558.50;;;2.54;59.44
5651;BME280;40241;52.684;9.758;2024-01-30T01:47:41;102549.50;;;2.53;59.59
5651;BME280;40241;52.684;9.758;2024-01-30T01:50:07;102554.97;;;2.53;59.56
5651;BME280;40241;52.684;9.758;2024-01-30T01:52:33;102548.72;;;2.53;59.84
5651;BME280;40241;52.684;9.758;2024-01-30T01:54:58;102554.63;;;2.51;59.79
5651;BME280;40241;52.684;9.758;2024-01-30T01:57:24;102550.72;;;2.52;59.92
5651;BME280;40241;52.684;9.758;2024-01-30T01:59:49;102542.09;;;2.54;59.80
5651;BME280;40241;52.684;9.758;2024-01-30T02:02:17;102553.47;;;2.49;59.77
5651;BME280;40241;52.684;9.758;2024-01-30T02:04:42;102536.56;;;2.57;59.76
5651;BME280;40241;52.684;9.758;2024-01-30T02:07:08;102543.94;;;2.61;59.76
5651;BME280;40241;52.684;9.758;2024-01-30T02:09:33;102541.56;;;2.63;59.79
5651;BME280;40241;52.684;9.758;2024-01-30T02:11:59;102536.88;;;2.63;59.45
5651;BME280;40241;52.684;9.758;2024-01-30T02:14:24;102537.66;;;2.64;60.15
5651;BME280;40241;52.684;9.758;2024-01-30T02:16:49;102535.28;;;2.66;59.70
5651;BME280;40241;52.684;9.758;2024-01-30T02:19:15;102520.41;;;2.67;59.93
5651;BME280;40241;52.684;9.758;2024-01-30T02:21:40;102518.47;;;2.67;59.74
5651;BME280;40241;52.684;9.758;2024-01-30T02:24:05;102512.56;;;2.69;59.53
5651;BME280;40241;52.684;9.758;2024-01-30T02:26:31;102509.44;;;2.70;59.98
5651;BME280;40241;52.684;9.758;2024-01-30T02:28:56;102509.38;;;2.74;59.78
5651;BME280;40241;52.684;9.758;2024-01-30T02:31:21;102506.63;;;2.74;59.84
5651;BME280;40241;52.684;9.758;2024-01-30T02:33:47;102504.31;;;2.72;60.13
5651;BME280;40241;52.684;9.758;2024-01-30T02:36:12;102498.44;;;2.74;60.28
5651;BME280;40241;52.684;9.758;2024-01-30T02:38:37;102493.31;;;2.76;60.05
5651;BME280;40241;52.684;9.758;2024-01-30T02:41:02;102501.44;;;2.79;60.12
5651;BME280;40241;52.684;9.758;2024-01-30T02:43:28;102495.97;;;2.79;60.01
5651;BME280;40241;52.684;9.758;2024-01-30T02:45:53;102491.66;;;2.82;60.05
5651;BME280;40241;52.684;9.758;2024-01-30T02:48:18;102494.72;;;2.84;60.09
5651;BME280;40241;52.684;9.758;2024-01-30T02:50:44;102495.09;;;2.86;60.16
5651;BME280;40241;52.684;9.758;2024-01-30T02:53:09;102495.03;;;2.89;60.32
5651;BME280;40241;52.684;9.758;2024-01-30T02:55:34;102491.88;;;2.91;59.87
5651;BME280;40241;52.684;9.758;2024-01-30T02:58:00;102491.88;;;2.91;60.16
5651;BME280;40241;52.684;9.758;2024-01-30T03:00:25;102487.19;;;2.91;60.10
5651;BME280;40241;52.684;9.758;2024-01-30T03:02:51;102478.56;;;2.93;60.31
5651;BME280;40241;52.684;9.758;2024-01-30T03:05:16;102476.19;;;2.95;60.12
5651;BME280;40241;52.684;9.758;2024-01-30T03:07:41;102466.78;;;2.96;59.94
5651;BME280;40241;52.684;9.758;2024-01-30T03:10:07;102472.97;;;3.00;60.30
5651;BME280;40241;52.684;9.758;2024-01-30T03:12:32;102476.88;;;2.99;60.28
5651;BME280;40241;52.684;9.758;2024-01-30T03:14:58;102476.13;;;2.98;60.35
5651;BME280;40241;52.684;9.758;2024-01-30T03:17:23;102474.91;;;2.99;60.31
5651;BME280;40241;52.684;9.758;2024-01-30T03:19:49;102475.34;;;2.98;60.32
5651;BME280;40241;52.684;9.758;2024-01-30T03:22:15;102473.78;;;2.97;60.56
5651;BME280;40241;52.684;9.758;2024-01-30T03:24:40;102473.03;;;2.96;60.31
5651;BME280;40241;52.684;9.758;2024-01-30T03:27:05;102467.97;;;2.95;60.08
5651;BME280;40241;52.684;9.758;2024-01-30T03:29:31;102473.44;;;2.95;60.35
5651;BME280;40241;52.684;9.758;2024-01-30T03:31:56;102471.91;;;2.94;60.11
5651;BME280;40241;52.684;9.758;2024-01-30T03:34:21;102473.09;;;2.93;60.37
5651;BME280;40241;52.684;9.758;2024-01-30T03:36:47;102474.69;;;2.90;60.00
5651;BME280;40241;52.684;9.758;2024-01-30T03:39:12;102464.19;;;2.89;60.27
5651;BME280;40241;52.684;9.758;2024-01-30T03:41:37;102463.06;;;2.86;60.05
5651;BME280;40241;52.684;9.758;2024-01-30T03:44:03;102456.06;;;2.85;60.37
5651;BME280;40241;52.684;9.758;2024-01-30T03:46:28;102465.44;;;2.84;60.14
5651;BME280;40241;52.684;9.758;2024-01-30T03:48:53;102464.31;;;2.82;60.41
5651;BME280;40241;52.684;9.758;2024-01-30T03:51:19;102458.50;;;2.80;60.55
5651;BME280;40241;52.684;9.758;2024-01-30T03:53:44;102462.44;;;2.79;60.43
5651;BME280;40241;52.684;9.758;2024-01-30T03:56:11;102455.41;;;2.78;60.39
5651;BME280;40241;52.684;9.758;2024-01-30T03:58:38;102450.38;;;2.76;60.22
5651;BME280;40241;52.684;9.758;2024-01-30T04:01:04;102452.75;;;2.74;60.46
5651;BME280;40241;52.684;9.758;2024-01-30T04:03:29;102451.19;;;2.73;60.41
5651;BME280;40241;52.684;9.758;2024-01-30T04:05:54;102456.66;;;2.73;60.53
5651;BME280;40241;52.684;9.758;2024-01-30T04:08:20;102452.78;;;2.71;60.78
5651;BME280;40241;52.684;9.758;2024-01-30T04:10:46;102452.44;;;2.69;60.42
5651;BME280;40241;52.684;9.758;2024-01-30T04:13:11;102451.31;;;2.66;60.74
5651;BME280;40241;52.684;9.758;2024-01-30T04:15:37;102457.22;;;2.65;60.55
5651;BME280;40241;52.684;9.758;2024-01-30T04:18:02;102452.53;;;2.65;60.85
5651;BME280;40241;52.684;9.758;2024-01-30T04:20:28;102447.88;;;2.62;60.75
5651;BME280;40241;52.684;9.758;2024-01-30T04:22:54;102443.97;;;2.63;60.31
5651;BME280;40241;52.684;9.758;2024-01-30T04:25:19;102449.84;;;2.62;60.50
5651;BME280;40241;52.684;9.758;2024-01-30T04:27:45;102444.78;;;2.60;60.58
5651;BME280;40241;52.684;9.758;2024-01-30T04:30:10;102447.94;;;2.59;60.81
5651;BME280;40241;52.684;9.758;2024-01-30T04:32:36;102448.72;;;2.59;60.81
5651;BME280;40241;52.684;9.758;2024-01-30T04:35:02;102460.00;;;2.61;60.81
5651;BME280;40241;52.684;9.758;2024-01-30T04:37:28;102455.28;;;2.62;60.58
5651;BME280;40241;52.684;9.758;2024-01-30T04:39:53;102452.63;;;2.58;60.89
5651;BME280;40241;52.684;9.758;2024-01-30T04:42:19;102454.94;;;2.60;61.05
5651;BME280;40241;52.684;9.758;2024-01-30T04:44:44;102454.59;;;2.57;60.88
5651;BME280;40241;52.684;9.758;2024-01-30T04:47:10;102451.88;;;2.57;60.88
5651;BME280;40241;52.684;9.758;2024-01-30T04:49:38;102453.47;;;2.55;60.86
5651;BME280;40241;52.684;9.758;2024-01-30T04:52:04;102456.63;;;2.53;60.87
5651;BME280;40241;52.684;9.758;2024-01-30T04:54:29;102453.06;;;2.57;60.98
5651;BME280;40241;52.684;9.758;2024-01-30T04:56:54;102448.38;;;2.57;60.94
5651;BME280;40241;52.684;9.758;2024-01-30T04:59:20;102448.78;;;2.55;60.82
5651;BME280;40241;52.684;9.758;2024-01-30T05:01:45;102447.66;;;2.53;60.79
5651;BME280;40241;52.684;9.758;2024-01-30T05:04:11;102450.44;;;2.49;60.77
5651;BME280;40241;52.684;9.758;2024-01-30T05:06:36;102444.63;;;2.47;60.74
5651;BME280;40241;52.684;9.758;2024-01-30T05:09:02;102447.38;;;2.47;60.74
5651;BME280;40241;52.684;9.758;2024-01-30T05:11:29;102445.44;;;2.44;60.81
5651;BME280;40241;52.684;9.758;2024-01-30T05:13:54;102443.94;;;2.43;60.95
5651;BME280;40241;52.684;9.758;2024-01-30T05:16:20;102440.41;;;2.43;61.00
5651;BME280;40241;52.684;9.758;2024-01-30T05:18:45;102438.84;;;2.42;61.06
5651;BME280;40241;52.684;9.758;2024-01-30T05:21:10;102447.84;;;2.42;60.95
5651;BME280;40241;52.684;9.758;2024-01-30T05:23:36;102457.97;;;2.42;61.24
5651;BME280;40241;52.684;9.758;2024-01-30T05:26:01;102454.50;;;2.41;60.96
5651;BME280;40241;52.684;9.758;2024-01-30T05:28:28;102435.03;;;2.39;60.93
5651;BME280;40241;52.684;9.758;2024-01-30T05:30:54;102430.72;;;2.38;60.88
5651;BME280;40241;52.684;9.758;2024-01-30T05:33:19;102438.94;;;2.38;60.86
5651;BME280;40241;52.684;9.758;2024-01-30T05:35:44;102436.63;;;2.37;60.91
5651;BME280;40241;52.684;9.758;2024-01-30T05:38:11;102432.75;;;2.34;60.99
5651;BME280;40241;52.684;9.758;2024-01-30T05:40:36;102434.34;;;2.32;61.11
5651;BME280;40241;52.684;9.758;2024-01-30T05:43:01;102441.75;;;2.31;61.08
5651;BME280;40241;52.684;9.758;2024-01-30T05:45:27;102437.47;;;2.30;60.87
5651;BME280;40241;52.684;9.758;2024-01-30T05:47:53;102439.78;;;2.32;61.27
5651;BME280;40241;52.684;9.758;2024-01-30T05:50:19;102443.31;;;2.32;60.99
5651;BME280;40241;52.684;9.758;2024-01-30T05:52:44;102435.09;;;2.32;61.32
5651;BME280;40241;52.684;9.758;2024-01-30T05:55:10;102435.50;;;2.34;61.12
5651;BME280;40241;52.684;9.758;2024-01-30T05:57:37;102431.97;;;2.34;61.10
5651;BME280;40241;52.684;9.758;2024-01-30T06:00:03;102435.50;;;2.34;61.30
5651;BME280;40241;52.684;9.758;2024-01-30T06:02:28;102436.28;;;2.35;60.95
5651;BME280;40241;52.684;9.758;2024-01-30T06:04:54;102432.75;;;2.34;61.20
5651;BME280;40241;52.684;9.758;2024-01-30T06:07:19;102430.03;;;2.34;61.02
5651;BME280;40241;52.684;9.758;2024-01-30T06:09:44;102424.56;;;2.34;61.08
5651;BME280;40241;52.684;9.758;2024-01-30T06:12:11;102417.94;;;2.32;61.18
5651;BME280;40241;52.684;9.758;2024-01-30T06:14:37;102420.66;;;2.32;61.34
5651;BME280;40241;52.684;9.758;2024-01-30T06:17:03;102421.44;;;2.32;61.26
5651;BME280;40241;52.684;9.758;2024-01-30T06:19:28;102424.59;;;2.31;61.04
5651;BME280;40241;52.684;9.758;2024-01-30T06:21:53;102420.75;;;2.28;61.25
5651;BME280;40241;52.684;9.758;2024-01-30T06:24:19;102423.50;;;2.25;61.38
5651;BME280;40241;52.684;9.758;2024-01-30T06:26:44;102428.97;;;2.25;61.46
5651;BME280;40241;52.684;9.758;2024-01-30T06:29:09;102414.63;;;2.21;61.36
5651;BME280;40241;52.684;9.758;2024-01-30T06:31:41;102409.16;;;2.21;61.29
5651;BME280;40241;52.684;9.758;2024-01-30T06:34:07;102410.34;;;2.20;61.25
5651;BME280;40241;52.684;9.758;2024-01-30T06:36:32;102409.56;;;2.19;61.70
5651;BME280;40241;52.684;9.758;2024-01-30T06:38:58;102407.19;;;2.21;61.49
5651;BME280;40241;52.684;9.758;2024-01-30T06:41:23;102411.47;;;2.22;61.32
5651;BME280;40241;52.684;9.758;2024-01-30T06:43:49;102407.19;;;2.21;61.41
5651;BME280;40241;52.684;9.758;2024-01-30T06:46:15;102416.91;;;2.22;61.52
5651;BME280;40241;52.684;9.758;2024-01-30T06:48:40;102415.41;;;2.21;61.55
5651;BME280;40241;52.684;9.758;2024-01-30T06:51:06;102421.56;;;2.25;61.83
5651;BME280;40241;52.684;9.758;2024-01-30T06:53:31;102421.91;;;2.27;61.51
5651;BME280;40241;52.684;9.758;2024-01-30T06:55:57;102420.75;;;2.28;61.66
5651;BME280;40241;52.684;9.758;2024-01-30T06:58:22;102417.16;;;2.31;61.37
5651;BME280;40241;52.684;9.758;2024-01-30T07:00:47;102423.41;;;2.32;61.58
5651;BME280;40241;52.684;9.758;2024-01-30T07:03:13;102428.88;;;2.32;61.71
5651;BME280;40241;52.684;9.758;2024-01-30T07:05:38;102425.34;;;2.31;61.54
5651;BME280;40241;52.684;9.758;2024-01-30T07:08:03;102426.56;;;2.30;61.48
5651;BME280;40241;52.684;9.758;2024-01-30T07:10:29;102424.59;;;2.31;61.66
5651;BME280;40241;52.684;9.758;2024-01-30T07:12:54;102427.28;;;2.34;61.89
5651;BME280;40241;52.684;9.758;2024-01-30T07:15:19;102431.94;;;2.37;61.83
5651;BME280;40241;52.684;9.758;2024-01-30T07:17:45;102421.38;;;2.39;61.70
5651;BME280;40241;52.684;9.758;2024-01-30T07:20:11;102420.16;;;2.40;61.54
5651;BME280;40241;52.684;9.758;2024-01-30T07:22:36;102418.22;;;2.41;61.68
5651;BME280;40241;52.684;9.758;2024-01-30T07:25:02;102417.78;;;2.42;61.57
5651;BME280;40241;52.684;9.758;2024-01-30T07:27:27;102413.09;;;2.43;61.78
5651;BME280;40241;52.684;9.758;2024-01-30T07:29:53;102409.19;;;2.44;61.77
5651;BME280;40241;52.684;9.758;2024-01-30T07:32:18;102420.47;;;2.46;61.51
5651;BME280;40241;52.684;9.758;2024-01-30T07:34:44;102418.84;;;2.48;61.68
5651;BME280;40241;52.684;9.758;2024-01-30T07:37:09;102421.09;;;2.53;61.47
5651;BME280;40241;52.684;9.758;2024-01-30T07:39:35;102417.53;;;2.57;61.72
5651;BME280;40241;52.684;9.758;2024-01-30T07:42:01;102423.72;;;2.61;61.60
5651;BME280;40241;52.684;9.758;2024-01-30T07:44:26;102422.13;;;2.63;61.83
5651;BME280;40241;52.684;9.758;2024-01-30T07:46:51;102414.25;;;2.65;61.41
5651;BME280;40241;52.684;9.758;2024-01-30T07:49:17;102419.66;;;2.69;61.70
5651;BME280;40241;52.684;9.758;2024-01-30T07:51:42;102409.94;;;2.68;61.58
5651;BME280;40241;52.684;9.758;2024-01-30T07:54:14;102411.47;;;2.69;61.50
5651;BME280;40241;52.684;9.758;2024-01-30T08:03:24;102406.66;;;2.76;61.94
5651;BME280;40241;52.684;9.758;2024-01-30T08:05:49;102394.44;;;2.81;61.56
5651;BME280;40241;52.684;9.758;2024-01-30T08:08:15;102394.38;;;2.84;61.91
5651;BME280;40241;52.684;9.758;2024-01-30T08:10:40;102387.28;;;2.87;61.92
5651;BME280;40241;52.684;9.758;2024-01-30T08:13:05;102386.38;;;2.93;61.86
5651;BME280;40241;52.684;9.758;2024-01-30T08:15:31;102388.22;;;3.00;62.06
5651;BME280;40241;52.684;9.758;2024-01-30T08:17:56;102388.13;;;3.03;62.04
5651;BME280;40241;52.684;9.758;2024-01-30T08:20:24;102384.47;;;3.10;62.00
5651;BME280;40241;52.684;9.758;2024-01-30T08:22:49;102385.53;;;3.16;62.32
5651;BME280;40241;52.684;9.758;2024-01-30T08:25:15;102385.78;;;3.21;62.24
5651;BME280;40241;52.684;9.758;2024-01-30T08:27:40;102394.63;;;3.29;61.92
5651;BME280;40241;52.684;9.758;2024-01-30T08:30:06;102397.97;;;3.37;62.07
5651;BME280;40241;52.684;9.758;2024-01-30T08:32:32;102429.97;;;3.40;62.00
5651;BME280;40241;52.684;9.758;2024-01-30T08:34:57;102398.16;;;3.46;61.86
5651;BME280;40241;52.684;9.758;2024-01-30T08:37:23;102391.88;;;3.49;62.06
5651;BME280;40241;52.684;9.758;2024-01-30T08:39:48;102397.59;;;3.54;62.35
5651;BME280;40241;52.684;9.758;2024-01-30T08:42:14;102386.50;;;3.61;62.29
5651;BME280;40241;52.684;9.758;2024-01-30T08:44:39;102386.34;;;3.68;62.12
5651;BME280;40241;52.684;9.758;2024-01-30T08:47:05;102397.88;;;3.76;62.13
5651;BME280;40241;52.684;9.758;2024-01-30T08:49:30;102394.63;;;3.81;62.08
5651;BME280;40241;52.684;9.758;2024-01-30T08:51:56;102384.28;;;3.88;62.24
5651;BME280;40241;52.684;9.758;2024-01-30T08:54:22;102391.97;;;3.93;62.24
5651;BME280;40241;52.684;9.758;2024-01-30T08:56:48;102390.25;;;3.99;62.37
5651;BME280;40241;52.684;9.758;2024-01-30T08:59:13;102401.03;;;4.06;62.43
5651;BME280;40241;52.684;9.758;2024-01-30T09:01:38;102380.16;;;4.13;62.22
5651;BME280;40241;52.684;9.758;2024-01-30T09:04:04;102383.84;;;4.22;62.29
5651;BME280;40241;52.684;9.758;2024-01-30T09:06:29;102385.28;;;4.27;62.05
5651;BME280;40241;52.684;9.758;2024-01-30T09:08:54;102386.22;;;4.36;62.55
5651;BME280;40241;52.684;9.758;2024-01-30T09:11:20;102380.97;;;4.42;62.41
5651;BME280;40241;52.684;9.758;2024-01-30T09:13:45;102387.81;;;4.50;62.39
5651;BME280;40241;52.684;9.758;2024-01-30T09:16:10;102381.69;;;4.58;62.23
5651;BME280;40241;52.684;9.758;2024-01-30T09:18:36;102388.09;;;4.68;62.31
5651;BME280;40241;52.684;9.758;2024-01-30T09:21:01;102385.19;;;4.75;62.61
5651;BME280;40241;52.684;9.758;2024-01-30T09:23:27;102386.09;;;4.85;62.35
5651;BME280;40241;52.684;9.758;2024-01-30T09:25:53;102394.91;;;4.92;62.37
5651;BME280;40241;52.684;9.758;2024-01-30T09:28:18;102390.75;;;5.00;62.26
5651;BME280;40241;52.684;9.758;2024-01-30T09:30:43;102387.81;;;5.07;62.49
5651;BME280;40241;52.684;9.758;2024-01-30T09:33:09;102391.78;;;5.19;62.53
5651;BME280;40241;52.684;9.758;2024-01-30T09:35:35;102388.41;;;5.27;62.53
5651;BME280;40241;52.684;9.758;2024-01-30T09:38:01;102393.91;;;5.40;62.34
5651;BME280;40241;52.684;9.758;2024-01-30T09:40:27;102386.09;;;5.51;62.56
5651;BME280;40241;52.684;9.758;2024-01-30T09:42:53;102392.50;;;5.61;62.52
5651;BME280;40241;52.684;9.758;2024-01-30T09:45:24;102390.28;;;5.68;62.55
5651;BME280;40241;52.684;9.758;2024-01-30T09:47:50;102393.91;;;5.78;62.44
5651;BME280;40241;52.684;9.758;2024-01-30T09:50:16;102389.28;;;5.87;62.41
5651;BME280;40241;52.684;9.758;2024-01-30T09:52:43;102388.59;;;5.96;62.40
5651;BME280;40241;52.684;9.758;2024-01-30T09:55:09;102387.50;;;6.06;62.50
5651;BME280;40241;52.684;9.758;2024-01-30T09:57:35;102388.00;;;6.13;62.53
5651;BME280;40241;52.684;9.758;2024-01-30T10:00:01;102386.91;;;6.23;62.57
5651;BME280;40241;52.684;9.758;2024-01-30T10:02:26;102385.44;;;6.31;62.50
5651;BME280;40241;52.684;9.758;2024-01-30T10:04:52;102385.97;;;6.39;62.51
5651;BME280;40241;52.684;9.758;2024-01-30T10:07:18;102382.53;;;6.48;62.52
5651;BME280;40241;52.684;9.758;2024-01-30T10:09:44;102396.69;;;6.59;62.62
5651;BME280;40241;52.684;9.758;2024-01-30T10:12:10;102378.91;;;6.72;62.45
5651;BME280;40241;52.684;9.758;2024-01-30T10:14:39;102383.16;;;6.86;62.49
5651;BME280;40241;52.684;9.758;2024-01-30T10:17:04;102387.53;;;6.96;62.39
5651;BME280;40241;52.684;9.758;2024-01-30T10:19:31;102371.69;;;7.09;62.36
5651;BME280;40241;52.684;9.758;2024-01-30T10:21:56;102374.81;;;7.20;62.20
5651;BME280;40241;52.684;9.758;2024-01-30T10:24:25;102375.94;;;7.32;62.09
5651;BME280;40241;52.684;9.758;2024-01-30T10:26:50;102372.75;;;7.42;61.96
5651;BME280;40241;52.684;9.758;2024-01-30T10:29:17;102370.03;;;7.51;61.88
5651;BME280;40241;52.684;9.758;2024-01-30T10:31:42;102369.31;;;7.60;61.82
5651;BME280;40241;52.684;9.758;2024-01-30T10:34:07;102371.00;;;7.66;61.70
5651;BME280;40241;52.684;9.758;2024-01-30T10:36:40;102365.53;;;7.75;61.57
5651;BME280;40241;52.684;9.758;2024-01-30T10:39:08;102366.78;;;7.83;61.67
5651;BME280;40241;52.684;9.758;2024-01-30T10:41:42;102364.03;;;7.93;61.56
5651;BME280;40241;52.684;9.758;2024-01-30T10:44:09;102362.09;;;8.02;61.58
5651;BME280;40241;52.684;9.758;2024-01-30T10:46:37;102364.09;;;8.11;61.22
5651;BME280;40241;52.684;9.758;2024-01-30T10:49:04;102367.78;;;8.17;61.15
5651;BME280;40241;52.684;9.758;2024-01-30T10:51:31;102371.50;;;8.23;61.16
5651;BME280;40241;52.684;9.758;2024-01-30T10:53:57;102362.91;;;8.30;61.18
5651;BME280;40241;52.684;9.758;2024-01-30T10:56:22;102363.38;;;8.37;61.09
5651;BME280;40241;52.684;9.758;2024-01-30T10:58:50;102354.81;;;8.44;60.89
5651;BME280;40241;52.684;9.758;2024-01-30T11:01:16;102350.50;;;8.52;60.76
5651;BME280;40241;52.684;9.758;2024-01-30T11:03:42;102351.72;;;8.61;60.72
5651;BME280;40241;52.684;9.758;2024-01-30T11:06:11;102349.84;;;8.67;60.63
5651;BME280;40241;52.684;9.758;2024-01-30T11:08:39;102354.28;;;8.73;60.72
5651;BME280;40241;52.684;9.758;2024-01-30T11:11:08;102356.44;;;8.78;60.44
5651;BME280;40241;52.684;9.758;2024-01-30T11:13:34;102350.78;;;8.82;60.61
5651;BME280;40241;52.684;9.758;2024-01-30T11:16:03;102348.91;;;8.88;60.35
5651;BME280;40241;52.684;9.758;2024-01-30T11:18:30;102356.56;;;8.93;60.35
5651;BME280;40241;52.684;9.758;2024-01-30T11:20:56;102356.72;;;8.98;60.39
5651;BME280;40241;52.684;9.758;2024-01-30T11:23:23;102339.97;;;9.02;60.31
5651;BME280;40241;52.684;9.758;2024-01-30T11:25:48;102354.38;;;9.06;59.97
5651;BME280;40241;52.684;9.758;2024-01-30T11:28:15;102343.97;;;9.10;59.95
5651;BME280;40241;52.684;9.758;2024-01-30T11:30:41;102350.84;;;9.14;60.04
5651;BME280;40241;52.684;9.758;2024-01-30T11:33:08;102340.41;;;9.18;59.87
5651;BME280;40241;52.684;9.758;2024-01-30T11:35:38;102341.00;;;9.22;59.61
5651;BME280;40241;52.684;9.758;2024-01-30T11:38:05;102347.13;;;9.26;59.75
5651;BME280;40241;52.684;9.758;2024-01-30T11:40:32;102346.50;;;9.32;59.79
5651;BME280;40241;52.684;9.758;2024-01-30T11:42:59;102342.31;;;9.36;59.67
5651;BME280;40241;52.684;9.758;2024-01-30T11:45:26;102351.97;;;9.41;59.64
5651;BME280;40241;52.684;9.758;2024-01-30T11:47:52;102339.22;;;9.43;59.65
5651;BME280;40241;52.684;9.758;2024-01-30T11:50:17;102340.56;;;9.48;59.60
5651;BME280;40241;52.684;9.758;2024-01-30T11:52:43;102333.63;;;9.52;59.54
5651;BME280;40241;52.684;9.758;2024-01-30T11:55:09;102327.50;;;9.57;59.62
5651;BME280;40241;52.684;9.758;2024-01-30T11:57:35;102326.59;;;9.60;59.45
5651;BME280;40241;52.684;9.758;2024-01-30T12:00:03;102331.16;;;9.63;59.27
5651;BME280;40241;52.684;9.758;2024-01-30T12:02:39;102318.53;;;9.71;59.27
5651;BME280;40241;52.684;9.758;2024-01-30T12:05:05;102327.22;;;9.79;59.43
5651;BME280;40241;52.684;9.758;2024-01-30T12:07:30;102323.63;;;9.87;59.12
5651;BME280;40241;52.684;9.758;2024-01-30T12:09:56;102321.69;;;10.02;59.20
5651;BME280;40241;52.684;9.758;2024-01-30T12:12:26;102322.13;;;10.25;58.96
5651;BME280;40241;52.684;9.758;2024-01-30T12:14:51;102322.06;;;10.48;58.70
5651;BME280;40241;52.684;9.758;2024-01-30T12:17:31;102327.53;;;10.72;57.73
5651;BME280;40241;52.684;9.758;2024-01-30T12:20:13;102329.97;;;10.94;57.32
5651;BME280;40241;52.684;9.758;2024-01-30T12:22:43;102333.56;;;11.14;57.71
5651;BME280;40241;52.684;9.758;2024-01-30T12:25:16;102321.91;;;11.25;57.50
5651;BME280;40241;52.684;9.758;2024-01-30T12:27:46;102335.47;;;11.23;56.97
5651;BME280;40241;52.684;9.758;2024-01-30T12:30:16;102333.19;;;11.21;57.33
5651;BME280;40241;52.684;9.758;2024-01-30T12:32:45;102338.91;;;11.18;57.05
5651;BME280;40241;52.684;9.758;2024-01-30T12:35:16;102338.84;;;11.12;56.95
5651;BME280;40241;52.684;9.758;2024-01-30T12:37:43;102334.25;;;11.09;57.42
5651;BME280;40241;52.684;9.758;2024-01-30T12:40:09;102330.72;;;11.09;57.43
5651;BME280;40241;52.684;9.758;2024-01-30T12:42:37;102343.53;;;11.06;57.30
5651;BME280;40241;52.684;9.758;2024-01-30T12:45:04;102338.94;;;11.03;57.38
5651;BME280;40241;52.684;9.758;2024-01-30T12:47:29;102343.25;;;11.04;57.58
5651;BME280;40241;52.684;9.758;2024-01-30T12:49:55;102338.75;;;11.07;57.49
5651;BME280;40241;52.684;9.758;2024-01-30T12:52:21;102338.25;;;11.08;57.49
5651;BME280;40241;52.684;9.758;2024-01-30T12:54:47;102337.28;;;11.11;57.61
5651;BME280;40241;52.684;9.758;2024-01-30T12:57:12;102330.25;;;11.10;57.55
5651;BME280;40241;52.684;9.758;2024-01-30T12:59:37;102332.06;;;11.13;57.46
5651;BME280;40241;52.684;9.758;2024-01-30T13:02:04;102328.03;;;11.14;57.41
5651;BME280;40241;52.684;9.758;2024-01-30T13:04:29;102337.59;;;11.13;57.51
5651;BME280;40241;52.684;9.758;2024-01-30T13:06:55;102337.78;;;11.10;57.38
5651;BME280;40241;52.684;9.758;2024-01-30T13:09:20;102338.16;;;11.03;57.52